Aviation Digital Data Service (ADDS)

Output produced by METARs form (1008 UTC 24 August 2016)
found at http://www.aviationweather.gov/adds/metars/
 
KJFK 240841Z 2409/2512 24005KT P6SM SKC 
     FM241300 27005KT P6SM SKC 
     FM241700 18012G18KT P6SM SKC 
     FM250100 21008KT P6SM SCT250